Time;durP1;ratioP1;P1;durP2;ratioP2;P2;SDS_P1;SDS_P2;PMS_P1;PMS_P2;Temp;Humidity;BMP_temperature;BMP_pressure;BME280_temperature;BME280_humidity;BME280_pressure;Samples;Min_cycle;Max_cycle;Signal;HPM_P1;HPM_P2
2021/07/28 00:00:50;;;;;;;7.40;6.70;;;;;;;23.25;61.36;100366.53;5014020;28;20030;-42
2021/07/28 00:03:15;;;;;;;6.45;5.85;;;;;;;23.25;61.33;100358.47;5012183;28;20028;-42
2021/07/28 00:05:40;;;;;;;8.15;7.03;;;;;;;23.26;61.20;100367.38;5011835;28;20018;-42
2021/07/28 00:08:07;;;;;;;6.70;6.05;;;;;;;23.24;61.44;100364.78;5005192;28;20092;-41
2021/07/28 00:10:35;;;;;;;7.47;6.18;;;;;;;23.24;61.73;100363.94;4999536;28;20357;-43
2021/07/28 00:13:04;;;;;;;6.65;6.03;;;;;;;23.23;61.35;100354.13;5014226;28;20056;-42
2021/07/28 00:15:29;;;;;;;7.07;6.43;;;;;;;23.24;61.65;100359.41;5011597;28;20515;-42
2021/07/28 00:17:59;;;;;;;7.18;6.57;;;;;;;23.24;61.60;100347.81;5001090;28;20032;-42
2021/07/28 00:25:35;;;;;;;7.07;6.38;;;;;;;23.22;61.58;100349.72;5011084;28;20052;-42
2021/07/28 00:28:01;;;;;;;7.78;6.97;;;;;;;23.21;61.68;100356.94;5011175;28;20022;-41
2021/07/28 00:30:30;;;;;;;7.47;6.72;;;;;;;23.20;61.63;100356.09;4994953;28;20102;-42
2021/07/28 00:32:55;;;;;;;7.85;7.07;;;;;;;23.20;61.57;100366.84;5002048;28;20026;-41
2021/07/28 00:35:23;;;;;;;6.70;6.10;;;;;;;23.21;61.68;100375.78;5010656;28;20033;-41
2021/07/28 00:37:49;;;;;;;6.80;6.20;;;;;;;23.19;61.53;100383.94;5005114;28;20050;-41
2021/07/28 00:40:18;;;;;;;6.68;6.03;;;;;;;23.20;61.45;100395.56;4997031;28;20487;-42
2021/07/28 00:42:43;;;;;;;7.82;6.38;;;;;;;23.19;61.38;100416.22;5000220;28;20527;-42
2021/07/28 00:45:10;;;;;;;7.25;6.55;;;;;;;23.18;61.90;100449.44;5008122;28;20125;-42
2021/07/28 00:47:37;;;;;;;7.18;6.57;;;;;;;23.15;61.60;100467.63;5013021;28;20024;-43
2021/07/28 00:50:04;;;;;;;7.38;6.68;;;;;;;23.14;61.51;100471.28;5002888;28;20037;-43
2021/07/28 00:52:32;;;;;;;6.93;6.32;;;;;;;23.12;61.40;100457.94;5001667;28;20049;-44
2021/07/28 00:55:01;;;;;;;7.97;7.18;;;;;;;23.11;61.50;100456.19;4979527;28;20022;-45
2021/07/28 00:57:29;;;;;;;7.13;6.43;;;;;;;23.11;61.47;100445.44;5011020;28;20030;-44
2021/07/28 00:59:58;;;;;;;7.18;6.50;;;;;;;23.11;61.37;100433.84;4973768;28;20092;-44
2021/07/28 01:02:25;;;;;;;7.18;6.47;;;;;;;23.13;61.53;100431.88;4992245;28;20030;-44
2021/07/28 01:04:50;;;;;;;8.00;7.20;;;;;;;23.11;61.36;100429.31;5000767;28;20038;-43
2021/07/28 01:07:15;;;;;;;7.43;6.63;;;;;;;23.10;61.70;100432.13;4993765;28;20030;-44
2021/07/28 01:09:43;;;;;;;7.63;6.88;;;;;;;23.11;61.59;100445.44;4998502;28;20222;-44
2021/07/28 01:12:08;;;;;;;7.95;7.25;;;;;;;23.11;61.67;100452.66;5006983;28;20562;-44
2021/07/28 01:14:34;;;;;;;7.28;6.57;;;;;;;23.09;61.82;100441.13;5009688;28;20041;-44
2021/07/28 01:16:59;;;;;;;6.95;6.25;;;;;;;23.09;61.49;100433.06;5009807;28;20081;-44
2021/07/28 01:19:28;;;;;;;7.07;6.38;;;;;;;23.07;61.88;100417.03;5006296;28;20018;-43
2021/07/28 01:21:53;;;;;;;6.85;6.15;;;;;;;23.07;61.57;100417.03;5009264;28;20121;-44
2021/07/28 01:24:19;;;;;;;7.25;6.18;;;;;;;23.08;61.84;100426.84;5010954;28;20032;-43
2021/07/28 01:26:44;;;;;;;6.88;6.28;;;;;;;23.07;61.68;100417.03;5010291;28;20491;-44
2021/07/28 01:29:16;;;;;;;6.60;5.97;;;;;;;23.06;61.55;100404.56;4993270;28;20396;-43
2021/07/28 01:31:44;;;;;;;7.00;6.32;;;;;;;23.06;61.64;100396.47;4993696;28;20571;-43
2021/07/28 01:34:11;;;;;;;7.13;6.40;;;;;;;23.06;61.84;100385.72;5013017;28;20052;-43
2021/07/28 01:36:39;;;;;;;7.25;6.13;;;;;;;23.05;61.73;100373.25;5014205;28;20029;-44
2021/07/28 01:39:04;;;;;;;6.78;6.15;;;;;;;23.06;61.75;100377.66;5014664;28;20124;-44
2021/07/28 01:41:31;;;;;;;6.72;6.07;;;;;;;23.03;61.84;100367.09;5007431;28;20113;-45
2021/07/28 01:43:56;;;;;;;6.35;5.75;;;;;;;23.04;61.89;100368.84;5011726;28;20603;-45
2021/07/28 01:46:22;;;;;;;7.93;6.10;;;;;;;23.03;61.88;100373.34;5012604;28;20491;-45
2021/07/28 01:48:48;;;;;;;5.95;5.35;;;;;;;23.03;61.85;100372.47;5003119;28;20038;-45
2021/07/28 01:51:13;;;;;;;6.57;5.82;;;;;;;23.02;62.08;100368.06;5007451;28;20040;-45
2021/07/28 01:53:38;;;;;;;7.15;6.35;;;;;;;23.03;61.76;100372.47;5015977;28;20037;-45
2021/07/28 01:56:04;;;;;;;6.15;5.65;;;;;;;23.01;61.99;100369.88;5016136;28;20030;-45
2021/07/28 01:58:37;;;;;;;6.65;6.05;;;;;;;23.01;62.05;100366.34;5016198;28;20105;-45
2021/07/28 02:01:06;;;;;;;5.75;5.25;;;;;;;23.00;62.07;100360.09;4984185;28;20034;-44
2021/07/28 02:03:31;;;;;;;5.85;5.25;;;;;;;23.00;62.01;100362.78;5016527;28;20033;-45
2021/07/28 02:05:57;;;;;;;6.53;5.88;;;;;;;23.00;62.25;100361.91;5019372;28;20056;-45
2021/07/28 02:08:23;;;;;;;5.60;5.00;;;;;;;22.99;62.09;100381.72;4986059;28;20577;-42
2021/07/28 02:10:50;;;;;;;5.47;4.97;;;;;;;22.98;61.92;100388.94;5017576;28;20524;-42
2021/07/28 02:13:18;;;;;;;6.05;4.82;;;;;;;22.98;62.16;100390.75;5020139;28;20025;-43
2021/07/28 02:15:47;;;;;;;5.97;5.47;;;;;;;22.97;62.06;100375.59;4986437;28;20017;-42
2021/07/28 02:18:13;;;;;;;5.82;5.20;;;;;;;22.96;62.19;100381.91;5014253;28;20033;-42
2021/07/28 02:20:38;;;;;;;5.45;4.95;;;;;;;22.97;62.12;100389.03;5012712;28;20069;-43
2021/07/28 02:23:04;;;;;;;6.53;5.90;;;;;;;22.94;61.95;100374.81;4986969;28;20041;-43
2021/07/28 02:25:29;;;;;;;5.57;5.07;;;;;;;22.94;62.14;100369.44;5005593;28;20109;-43
2021/07/28 02:27:55;;;;;;;6.47;5.85;;;;;;;22.95;62.32;100367.63;5013493;28;20554;-43
2021/07/28 02:30:21;;;;;;;5.93;5.38;;;;;;;22.93;62.26;100366.84;4996187;28;20500;-43
2021/07/28 02:32:46;;;;;;;5.40;4.93;;;;;;;22.92;62.01;100360.63;4995920;28;20472;-42
2021/07/28 02:35:27;;;;;;;5.22;4.60;;;;;;;22.92;62.25;100376.75;5013511;28;20030;-43
2021/07/28 02:37:55;;;;;;;5.30;4.53;;;;;;;22.92;62.33;100382.13;5013607;28;20546;-43
2021/07/28 02:40:21;;;;;;;5.20;4.70;;;;;;;22.89;62.14;100371.59;5011509;28;20087;-43
2021/07/28 02:42:49;;;;;;;7.28;5.30;;;;;;;22.90;62.24;100367.91;5013216;28;20029;-42
2021/07/28 02:45:15;;;;;;;5.78;5.28;;;;;;;22.90;62.10;100373.31;5011571;28;20038;-43
2021/07/28 02:47:40;;;;;;;5.57;5.07;;;;;;;22.90;62.33;100372.44;5006391;28;20373;-43
2021/07/28 02:50:06;;;;;;;5.63;5.13;;;;;;;22.90;62.33;100377.81;5010491;28;20104;-42
2021/07/28 02:52:32;;;;;;;5.63;5.07;;;;;;;22.89;62.34;100370.72;5016854;28;20057;-42
2021/07/28 02:55:06;;;;;;;5.90;5.25;;;;;;;22.89;62.29;100371.59;5015974;28;20033;-42
2021/07/28 02:57:37;;;;;;;5.20;4.70;;;;;;;22.88;62.22;100375.22;5017373;28;20061;-41
2021/07/28 03:00:04;;;;;;;4.88;4.40;;;;;;;22.87;62.16;100365.44;5016134;28;20042;-42
2021/07/28 03:02:29;;;;;;;5.07;4.20;;;;;;;22.86;62.40;100361.03;5012875;28;20392;-43
2021/07/28 03:04:54;;;;;;;4.78;4.38;;;;;;;22.86;62.21;100360.16;5005858;28;20026;-43
2021/07/28 03:07:21;;;;;;;4.20;3.88;;;;;;;22.85;62.32;100353.94;5003161;28;20038;-43
2021/07/28 03:09:46;;;;;;;4.45;3.83;;;;;;;22.86;62.04;100358.34;5001657;28;20029;-42
2021/07/28 03:12:12;;;;;;;4.68;4.18;;;;;;;22.85;62.39;100364.69;5014322;28;20296;-43
2021/07/28 03:14:37;;;;;;;5.50;4.70;;;;;;;22.83;62.32;100355.84;5012329;28;20472;-42
2021/07/28 03:17:02;;;;;;;4.78;3.65;;;;;;;22.85;62.33;100361.13;5012835;28;20061;-42
2021/07/28 03:19:27;;;;;;;4.35;3.92;;;;;;;22.82;62.18;100364.88;5010457;28;20072;-44
2021/07/28 03:21:53;;;;;;;4.60;4.13;;;;;;;22.82;62.36;100359.50;5005916;28;20060;-43
2021/07/28 03:24:18;;;;;;;4.50;4.10;;;;;;;22.82;62.24;100362.19;4989892;28;20026;-43
2021/07/28 03:26:45;;;;;;;4.13;3.80;;;;;;;22.81;62.18;100373.91;5012226;28;20404;-42
2021/07/28 03:29:10;;;;;;;4.68;4.13;;;;;;;22.80;62.37;100386.50;5009687;28;20469;-43
2021/07/28 03:31:36;;;;;;;5.00;4.50;;;;;;;22.81;62.19;100384.69;5012517;28;20080;-42
2021/07/28 03:34:01;;;;;;;5.07;4.18;;;;;;;22.79;62.24;100381.22;5012350;28;20030;-42
2021/07/28 03:36:26;;;;;;;4.13;3.72;;;;;;;22.77;62.39;100378.63;5010435;28;20037;-43
2021/07/28 03:38:52;;;;;;;4.65;4.25;;;;;;;22.77;62.22;100377.78;5011305;28;20034;-43
2021/07/28 03:41:17;;;;;;;4.60;3.70;;;;;;;22.77;62.50;100377.78;5010805;28;20033;-42
2021/07/28 03:43:42;;;;;;;4.20;3.80;;;;;;;22.76;62.23;100371.53;5012417;28;20518;-42
2021/07/28 03:46:08;;;;;;;4.38;3.53;;;;;;;22.75;62.54;100364.44;4978854;28;20028;-43
2021/07/28 03:48:33;;;;;;;4.13;3.72;;;;;;;22.76;62.49;100365.28;5012670;28;20072;-43
2021/07/28 03:50:58;;;;;;;3.63;3.33;;;;;;;22.75;62.23;100355.50;5012471;28;20080;-44
2021/07/28 03:53:24;;;;;;;4.15;3.78;;;;;;;22.73;62.35;100349.34;5009979;28;20056;-43
2021/07/28 03:55:49;;;;;;;4.43;4.07;;;;;;;22.72;62.29;100347.63;5012043;28;20034;-43
2021/07/28 03:58:15;;;;;;;4.50;4.10;;;;;;;22.73;62.19;100347.53;5012291;28;20026;-43
2021/07/28 04:00:40;;;;;;;4.47;4.07;;;;;;;22.72;62.37;100359.25;5012107;28;20029;-44
2021/07/28 04:03:05;;;;;;;4.60;3.75;;;;;;;22.72;62.45;100366.44;4993196;28;20037;-43
2021/07/28 04:05:30;;;;;;;5.22;4.03;;;;;;;22.71;62.28;100367.41;4988494;28;20034;-43
2021/07/28 04:07:56;;;;;;;4.28;3.40;;;;;;;22.71;62.51;100372.78;5011322;28;20040;-43
2021/07/28 04:10:22;;;;;;;4.13;3.75;;;;;;;22.70;62.27;100371.91;5011155;28;20029;-43
2021/07/28 04:12:47;;;;;;;4.53;3.70;;;;;;;22.70;62.34;100376.44;4993940;28;20018;-43
2021/07/28 04:15:13;;;;;;;4.10;3.70;;;;;;;22.68;62.47;100385.44;5011935;28;20112;-43
2021/07/28 04:17:38;;;;;;;4.10;3.70;;;;;;;22.67;62.25;100375.69;4994350;28;20037;-43
2021/07/28 04:20:04;;;;;;;4.43;4.03;;;;;;;22.68;62.27;100374.69;5012517;28;20072;-43
2021/07/28 04:22:29;;;;;;;4.18;3.78;;;;;;;22.67;62.35;100372.97;5011582;28;20018;-43
2021/07/28 04:24:54;;;;;;;3.63;3.33;;;;;;;22.67;62.24;100374.81;5011465;28;20034;-43
2021/07/28 04:27:20;;;;;;;5.32;3.70;;;;;;;22.65;62.25;100385.69;5011646;28;20460;-43
2021/07/28 04:29:45;;;;;;;4.10;3.70;;;;;;;22.65;62.60;100385.69;5011684;28;20018;-43
2021/07/28 04:32:10;;;;;;;4.72;4.28;;;;;;;22.64;62.23;100385.78;5011768;28;20021;-43
2021/07/28 04:34:36;;;;;;;4.07;3.67;;;;;;;22.63;62.47;100382.22;5011158;28;20057;-44
2021/07/28 04:37:02;;;;;;;4.50;4.10;;;;;;;22.62;62.48;100390.38;5010221;28;20467;-43
2021/07/28 04:39:27;;;;;;;4.03;3.72;;;;;;;22.62;62.48;100402.00;5011365;28;20045;-43
2021/07/28 04:41:52;;;;;;;4.25;3.85;;;;;;;22.60;62.38;100395.84;4992851;28;20045;-43
2021/07/28 04:44:18;;;;;;;4.68;4.18;;;;;;;22.58;62.21;100395.09;4994527;28;20080;-43
2021/07/28 04:46:43;;;;;;;3.83;3.53;;;;;;;22.60;62.45;100395.00;5010453;28;20095;-44
2021/07/28 04:49:08;;;;;;;4.57;4.07;;;;;;;22.59;62.38;100396.81;4993880;28;20053;-44
2021/07/28 04:51:34;;;;;;;4.60;4.20;;;;;;;22.59;62.23;100399.50;5010680;28;20026;-43
2021/07/28 04:53:59;;;;;;;4.80;3.55;;;;;;;22.57;62.25;100376.38;5010682;28;20036;-43
2021/07/28 04:56:24;;;;;;;4.35;3.90;;;;;;;22.58;62.24;100376.28;5011405;28;20022;-43
2021/07/28 04:58:50;;;;;;;4.10;3.70;;;;;;;22.55;62.30;100368.38;5010831;28;20026;-43
2021/07/28 05:01:15;;;;;;;4.18;3.88;;;;;;;22.57;62.36;100368.31;5011526;28;20115;-43
2021/07/28 05:03:40;;;;;;;4.43;3.70;;;;;;;22.55;62.35;100366.53;4993523;28;20032;-43
2021/07/28 05:06:06;;;;;;;3.95;3.55;;;;;;;22.57;62.29;100371.00;5010796;28;20032;-43
2021/07/28 05:08:31;;;;;;;4.28;3.83;;;;;;;22.57;62.53;100377.22;5010056;28;20049;-43
2021/07/28 05:10:56;;;;;;;4.30;3.90;;;;;;;22.56;62.33;100380.88;5011898;28;20117;-43
2021/07/28 05:13:22;;;;;;;4.25;3.85;;;;;;;22.57;62.25;100376.38;5015274;28;20022;-43
2021/07/28 05:15:53;;;;;;;3.72;3.42;;;;;;;22.55;62.34;100368.38;5015184;28;20495;-43
2021/07/28 05:18:18;;;;;;;3.35;3.05;;;;;;;22.54;62.38;100367.50;4997814;28;20029;-43
2021/07/28 05:20:43;;;;;;;3.88;3.58;;;;;;;22.56;62.32;100372.81;5014901;28;20201;-43
2021/07/28 05:23:09;;;;;;;4.13;3.72;;;;;;;22.54;62.41;100378.25;4997387;28;20033;-43
2021/07/28 05:25:34;;;;;;;4.40;3.88;;;;;;;22.52;62.48;100374.81;5014464;28;20045;-43
2021/07/28 05:27:59;;;;;;;3.72;3.42;;;;;;;22.54;62.68;100393.53;5015172;28;20042;-42
2021/07/28 05:30:27;;;;;;;4.63;4.07;;;;;;;22.54;62.56;100388.16;5015184;28;20098;-42
2021/07/28 05:32:52;;;;;;;3.88;3.58;;;;;;;22.52;62.54;100390.06;5014902;28;20072;-43
2021/07/28 05:35:17;;;;;;;5.47;3.63;;;;;;;22.52;62.70;100401.69;5014921;28;20038;-42
2021/07/28 05:37:43;;;;;;;3.30;3.00;;;;;;;22.51;62.37;100393.72;4997370;28;20036;-42
2021/07/28 05:40:09;;;;;;;3.85;3.20;;;;;;;22.51;62.71;100393.72;4995953;28;20091;-42
2021/07/28 05:42:34;;;;;;;3.63;3.25;;;;;;;22.51;62.63;100393.72;5013920;28;20411;-43
2021/07/28 05:45:01;;;;;;;5.22;3.60;;;;;;;22.51;62.51;100396.41;5014436;28;20100;-42
2021/07/28 05:47:26;;;;;;;4.28;3.88;;;;;;;22.50;62.47;100408.09;5014128;28;20127;-42
2021/07/28 05:49:51;;;;;;;4.20;3.47;;;;;;;22.51;62.40;100405.31;5014520;28;20135;-42
2021/07/28 05:52:17;;;;;;;4.30;3.90;;;;;;;22.50;62.36;100411.66;4996991;28;20065;-42
2021/07/28 05:54:42;;;;;;;4.25;3.88;;;;;;;22.49;62.55;100407.25;4997273;28;20033;-43
2021/07/28 05:57:07;;;;;;;4.20;3.80;;;;;;;22.50;62.53;100408.09;5014768;28;20030;-43
2021/07/28 05:59:33;;;;;;;4.25;3.85;;;;;;;22.49;62.41;100411.75;5014554;28;20021;-42
2021/07/28 06:01:58;;;;;;;4.30;3.70;;;;;;;22.48;62.56;100404.66;5014108;28;20073;-43
2021/07/28 06:04:23;;;;;;;4.68;4.28;;;;;;;22.49;62.51;100406.38;5014086;28;20464;-43
2021/07/28 06:06:49;;;;;;;4.43;4.03;;;;;;;22.48;62.60;100408.22;4997195;28;20285;-43
2021/07/28 06:09:14;;;;;;;4.15;3.42;;;;;;;22.47;62.49;100398.41;4997965;28;20692;-42
2021/07/28 06:11:39;;;;;;;3.72;3.42;;;;;;;22.46;62.64;100396.69;5016464;28;20102;-44
2021/07/28 06:14:06;;;;;;;4.72;3.75;;;;;;;22.44;62.65;100401.28;5014296;28;20025;-44
2021/07/28 06:16:31;;;;;;;5.85;4.15;;;;;;;22.45;62.44;100399.47;5013807;28;20113;-44
2021/07/28 06:18:57;;;;;;;4.43;4.03;;;;;;;22.45;62.50;100407.53;5013830;28;20109;-42
2021/07/28 06:21:22;;;;;;;5.40;3.92;;;;;;;22.43;62.49;100400.44;4996304;28;20104;-42
2021/07/28 06:23:48;;;;;;;4.85;4.22;;;;;;;22.42;62.64;100401.44;5013721;28;20121;-42
2021/07/28 06:26:13;;;;;;;4.80;4.03;;;;;;;22.42;62.65;100396.06;5014045;28;20022;-42
2021/07/28 06:28:38;;;;;;;4.13;3.70;;;;;;;22.42;62.61;100392.50;5013984;28;20041;-42
2021/07/28 06:31:04;;;;;;;4.43;3.83;;;;;;;22.41;62.27;100399.69;5014216;28;20036;-42
2021/07/28 06:33:29;;;;;;;3.72;3.42;;;;;;;22.41;62.67;100396.97;5014275;28;20022;-43
2021/07/28 06:35:55;;;;;;;4.00;3.70;;;;;;;22.42;62.54;100396.06;4995999;28;20490;-42
2021/07/28 06:38:20;;;;;;;5.00;3.53;;;;;;;22.41;62.49;100388.94;5014014;28;20053;-42
2021/07/28 06:40:46;;;;;;;4.40;4.00;;;;;;;22.41;62.60;100388.94;5012536;28;20038;-42
2021/07/28 06:43:12;;;;;;;4.05;3.65;;;;;;;22.41;62.46;100396.97;5012761;28;20026;-42
2021/07/28 06:45:37;;;;;;;4.25;3.90;;;;;;;22.41;62.42;100388.94;5013319;28;20029;-43
2021/07/28 06:48:03;;;;;;;5.38;3.85;;;;;;;22.40;62.39;100397.97;5013492;28;20034;-42
2021/07/28 06:50:28;;;;;;;4.22;3.85;;;;;;;22.41;62.53;100396.16;4998416;28;20301;-42
2021/07/28 06:52:54;;;;;;;4.30;3.90;;;;;;;22.41;62.57;100390.78;5013731;28;20323;-43
2021/07/28 06:55:19;;;;;;;4.15;3.75;;;;;;;22.40;62.52;100395.28;5012498;28;20057;-43
2021/07/28 06:57:44;;;;;;;4.43;4.03;;;;;;;22.40;62.45;100397.97;5013192;28;20044;-43
2021/07/28 07:00:10;;;;;;;4.30;3.90;;;;;;;22.39;62.42;100393.56;5013913;28;20025;-43
2021/07/28 07:02:35;;;;;;;4.00;3.60;;;;;;;22.40;62.35;100381.84;5013181;28;20025;-42
2021/07/28 07:05:01;;;;;;;3.97;3.67;;;;;;;22.40;62.42;100392.59;5012674;28;20084;-43
2021/07/28 07:07:27;;;;;;;4.43;4.03;;;;;;;22.40;62.55;100394.41;5013321;28;20026;-42
2021/07/28 07:09:52;;;;;;;4.25;3.85;;;;;;;22.41;62.41;100401.50;4995670;28;20492;-43
2021/07/28 07:12:18;;;;;;;4.13;3.72;;;;;;;22.39;62.58;100401.63;4995774;28;20418;-43
2021/07/28 07:14:45;;;;;;;4.70;4.30;;;;;;;22.40;62.65;100408.69;5013083;28;20100;-43
2021/07/28 07:17:10;;;;;;;4.80;3.97;;;;;;;22.39;62.45;100395.38;5011453;28;20034;-43
2021/07/28 07:19:36;;;;;;;4.20;3.80;;;;;;;22.37;62.83;100398.16;4994487;28;20064;-43
2021/07/28 07:22:01;;;;;;;3.95;3.60;;;;;;;22.35;62.58;100400.09;5013195;28;20026;-42
2021/07/28 07:24:26;;;;;;;4.43;4.03;;;;;;;22.36;62.24;100396.44;5013182;28;20026;-43
2021/07/28 07:26:52;;;;;;;3.90;3.50;;;;;;;22.35;62.26;100394.72;4995102;28;20018;-43
2021/07/28 07:29:18;;;;;;;5.57;4.05;;;;;;;22.34;62.20;100398.34;5012849;28;20387;-43
2021/07/28 07:31:43;;;;;;;4.93;3.63;;;;;;;22.35;61.81;100399.22;5012275;28;20408;-43
2021/07/28 07:34:08;;;;;;;4.65;4.25;;;;;;;22.36;62.05;100398.25;5011154;28;20021;-42
2021/07/28 07:36:34;;;;;;;5.13;4.68;;;;;;;22.35;61.79;100399.22;5011469;28;20038;-43
2021/07/28 07:38:59;;;;;;;4.40;4.00;;;;;;;22.35;62.00;100393.84;4995122;28;20022;-43
2021/07/28 07:41:24;;;;;;;4.50;4.10;;;;;;;22.33;62.15;100393.94;5012601;28;20205;-42
2021/07/28 07:43:50;;;;;;;5.00;4.47;;;;;;;22.33;62.00;100399.31;5012524;28;20032;-42
2021/07/28 07:46:15;;;;;;;4.45;4.05;;;;;;;22.33;61.95;100393.94;5012586;28;20030;-43
2021/07/28 07:48:40;;;;;;;4.95;4.45;;;;;;;22.35;61.97;100404.59;5012070;28;20036;-43
2021/07/28 07:51:06;;;;;;;4.53;4.13;;;;;;;22.34;61.82;100398.34;5012387;28;20057;-43
2021/07/28 07:53:31;;;;;;;6.32;4.65;;;;;;;22.34;61.65;100395.66;4993778;28;20044;-43
2021/07/28 07:55:58;;;;;;;4.45;4.05;;;;;;;22.35;61.67;100404.59;4977389;28;20056;-42
2021/07/28 07:58:23;;;;;;;5.10;4.60;;;;;;;22.33;61.52;100406.50;5012462;28;20030;-43
2021/07/28 08:00:49;;;;;;;4.68;4.18;;;;;;;22.32;61.63;100404.78;4993849;28;20033;-43
2021/07/28 08:03:15;;;;;;;5.60;5.07;;;;;;;22.33;61.67;100409.16;5010576;28;20030;-43
2021/07/28 08:05:40;;;;;;;5.30;4.80;;;;;;;22.31;61.36;100409.28;5011587;28;20033;-42
2021/07/28 08:08:06;;;;;;;5.28;4.68;;;;;;;22.30;61.35;100407.53;5012314;28;20018;-43
2021/07/28 08:10:31;;;;;;;5.20;4.70;;;;;;;22.33;61.42;100403.81;5012164;28;20026;-43
2021/07/28 08:12:56;;;;;;;4.78;4.30;;;;;;;22.32;61.33;100411.00;5011745;28;20022;-43
2021/07/28 08:15:22;;;;;;;4.72;4.32;;;;;;;22.32;61.28;100410.13;5011914;28;20400;-43
2021/07/28 08:17:47;;;;;;;5.05;4.65;;;;;;;22.29;61.40;100404.03;5011993;28;20025;-42
2021/07/28 08:20:12;;;;;;;4.75;4.25;;;;;;;22.29;61.33;100405.84;5011990;28;20073;-43
2021/07/28 08:22:38;;;;;;;4.82;4.40;;;;;;;22.28;61.45;100409.50;5011851;28;20040;-42
2021/07/28 08:25:04;;;;;;;5.15;4.65;;;;;;;22.25;61.15;100407.88;4992838;28;20036;-43
2021/07/28 08:27:29;;;;;;;5.55;5.05;;;;;;;22.26;61.10;100406.91;5012020;28;20088;-43
2021/07/28 08:29:55;;;;;;;5.20;4.57;;;;;;;22.24;61.11;100407.97;5011835;28;20060;-43
2021/07/28 08:32:21;;;;;;;4.63;4.22;;;;;;;22.26;60.95;100419.44;5011949;28;20018;-43
2021/07/28 08:34:46;;;;;;;5.20;4.70;;;;;;;22.27;60.95;100415.78;5011152;28;20029;-42
2021/07/28 08:37:11;;;;;;;5.47;4.97;;;;;;;22.26;61.14;100414.06;5011907;28;20512;-43
2021/07/28 08:39:37;;;;;;;6.65;4.88;;;;;;;22.28;61.12;100414.84;5011827;28;20021;-43
2021/07/28 08:42:04;;;;;;;4.68;4.22;;;;;;;22.26;61.17;100417.63;5011364;28;20045;-42
2021/07/28 08:44:33;;;;;;;5.45;4.35;;;;;;;22.26;61.21;100425.69;5009624;28;20098;-42
2021/07/28 08:46:59;;;;;;;5.03;4.53;;;;;;;22.26;61.28;100422.13;5011230;28;20361;-43
2021/07/28 08:49:24;;;;;;;4.80;4.40;;;;;;;22.25;61.19;100410.53;4977782;28;20033;-43
2021/07/28 08:51:50;;;;;;;5.75;4.80;;;;;;;22.25;61.18;100415.03;4993783;28;20463;-43
2021/07/28 08:54:16;;;;;;;4.38;3.97;;;;;;;22.25;61.20;100420.41;5011507;28;20026;-42
2021/07/28 08:56:42;;;;;;;4.47;4.07;;;;;;;22.26;60.95;100411.38;5009169;28;20029;-43
2021/07/28 08:59:32;;;;;;;7.38;5.05;;;;;;;22.25;60.99;100415.91;5011661;28;20068;-43
2021/07/28 09:02:00;;;;;;;5.30;4.80;;;;;;;22.25;61.13;100415.03;5011383;28;20544;-43
2021/07/28 09:04:26;;;;;;;6.03;4.47;;;;;;;22.25;60.92;100415.03;4993613;28;20564;-42
2021/07/28 09:06:51;;;;;;;4.55;4.15;;;;;;;22.26;61.14;100411.38;5009627;28;20496;-43
2021/07/28 09:09:17;;;;;;;4.95;4.55;;;;;;;22.23;61.18;100417.81;4993557;28;20034;-42
2021/07/28 09:11:57;;;;;;;5.70;4.95;;;;;;;22.25;61.03;100420.41;5011500;28;20018;-42
2021/07/28 09:14:29;;;;;;;5.47;4.90;;;;;;;22.26;61.01;100427.50;4994051;28;20080;-43
2021/07/28 09:17:12;;;;;;;6.05;4.53;;;;;;;22.25;61.00;100439.22;4994255;28;20029;-42
2021/07/28 09:19:46;;;;;;;7.07;4.93;;;;;;;22.24;61.03;100424.91;5011766;28;20376;-42
2021/07/28 09:22:12;;;;;;;5.07;4.68;;;;;;;22.25;61.08;100420.41;5010400;28;20034;-43
2021/07/28 09:24:38;;;;;;;5.65;5.10;;;;;;;22.24;60.85;100430.28;5010811;28;20030;-42
2021/07/28 09:27:04;;;;;;;7.07;5.10;;;;;;;22.23;60.87;100442.00;5011150;28;20049;-42
2021/07/28 09:29:30;;;;;;;5.55;5.00;;;;;;;22.23;60.81;100444.69;4999439;28;20057;-42
2021/07/28 09:32:06;;;;;;;8.05;5.70;;;;;;;22.24;60.58;100440.19;5011513;28;20026;-42
2021/07/28 09:34:34;;;;;;;5.75;5.10;;;;;;;22.25;60.96;100441.91;5009615;28;20022;-43
2021/07/28 09:37:04;;;;;;;5.53;5.03;;;;;;;22.24;60.71;100438.34;5010567;28;20148;-42
2021/07/28 09:39:31;;;;;;;6.20;5.30;;;;;;;22.24;60.81;100432.13;5011241;28;20036;-42
2021/07/28 09:41:58;;;;;;;6.53;5.55;;;;;;;22.23;60.73;100425.88;4993482;28;20044;-43
2021/07/28 09:44:25;;;;;;;6.20;5.60;;;;;;;22.23;60.59;100425.88;4993327;28;20060;-42
2021/07/28 09:47:02;;;;;;;6.40;5.80;;;;;;;22.22;60.50;100420.59;5010970;28;20026;-42
2021/07/28 09:49:27;;;;;;;7.28;5.78;;;;;;;22.23;60.41;100415.13;5008621;28;20080;-42
2021/07/28 09:51:52;;;;;;;5.70;5.07;;;;;;;22.23;60.47;100420.50;5011134;28;20018;-42
2021/07/28 09:54:18;;;;;;;5.25;4.75;;;;;;;22.25;60.24;100417.72;5011374;28;20025;-42
2021/07/28 09:56:51;;;;;;;6.20;5.60;;;;;;;22.24;60.62;100413.31;5014021;28;20052;-42
2021/07/28 09:59:17;;;;;;;5.80;5.22;;;;;;;22.25;60.33;100420.41;4997350;28;20054;-42
2021/07/28 10:01:44;;;;;;;5.90;5.30;;;;;;;22.23;60.33;100412.44;5013011;28;20030;-43
2021/07/28 10:04:11;;;;;;;5.97;4.95;;;;;;;22.23;60.15;100416.94;5013209;28;20439;-42
2021/07/28 10:06:39;;;;;;;5.78;5.18;;;;;;;22.24;60.00;100410.63;5014182;28;20518;-43
2021/07/28 10:09:12;;;;;;;5.57;5.05;;;;;;;22.25;60.40;100412.34;4996900;28;20038;-42
2021/07/28 10:11:38;;;;;;;5.93;5.40;;;;;;;22.23;60.10;100417.81;5014322;28;20026;-42
2021/07/28 10:14:04;;;;;;;5.10;4.60;;;;;;;22.26;60.35;100416.75;5012507;28;20117;-42
2021/07/28 10:16:33;;;;;;;6.30;5.65;;;;;;;22.25;60.21;100410.53;5012339;28;20105;-43
2021/07/28 10:19:00;;;;;;;5.97;5.38;;;;;;;22.25;60.40;100407.00;4997178;28;20500;-42
2021/07/28 10:21:26;;;;;;;5.95;5.35;;;;;;;22.26;60.26;100414.06;5014173;28;20038;-42
2021/07/28 10:23:52;;;;;;;6.25;5.53;;;;;;;22.26;60.13;100414.06;5014114;28;20377;-42
2021/07/28 10:26:18;;;;;;;7.13;5.75;;;;;;;22.25;60.24;100409.66;4992627;28;20113;-42
2021/07/28 10:28:46;;;;;;;5.65;5.15;;;;;;;22.25;60.35;100407.00;5013499;28;20069;-42
2021/07/28 10:31:16;;;;;;;6.30;5.70;;;;;;;22.23;60.08;100412.44;5013736;28;20041;-42
2021/07/28 10:34:09;;;;;;;6.70;5.80;;;;;;;22.27;60.02;100418.47;5013750;28;20014;-43
2021/07/28 10:36:47;;;;;;;5.90;5.38;;;;;;;22.25;60.09;100410.53;4993931;28;20084;-42
2021/07/28 10:39:35;;;;;;;6.00;5.50;;;;;;;22.26;60.07;100417.63;5013267;28;20030;-43
2021/07/28 10:42:02;;;;;;;6.13;5.53;;;;;;;22.25;60.16;100420.41;5013133;28;20029;-42
2021/07/28 10:44:27;;;;;;;5.78;5.28;;;;;;;22.25;60.16;100423.97;5013897;28;20022;-42
2021/07/28 10:46:53;;;;;;;5.97;5.30;;;;;;;22.27;60.30;100415.78;5013386;28;20369;-42
2021/07/28 10:49:42;;;;;;;5.75;5.25;;;;;;;22.25;60.38;100410.53;5012420;28;20029;-42
2021/07/28 10:52:13;;;;;;;5.82;5.32;;;;;;;22.26;60.12;100424.81;5013001;28;20030;-42
2021/07/28 10:54:48;;;;;;;5.80;5.30;;;;;;;22.27;60.23;100431.91;4997149;28;20025;-42
2021/07/28 10:57:35;;;;;;;6.50;5.85;;;;;;;22.28;60.11;100433.66;5013359;28;20408;-42
2021/07/28 11:00:05;;;;;;;5.55;5.05;;;;;;;22.26;59.98;100422.13;5013754;28;20029;-43
2021/07/28 11:02:52;;;;;;;5.50;4.97;;;;;;;22.27;60.13;100431.91;4995991;28;20030;-42
2021/07/28 11:05:23;;;;;;;5.80;5.30;;;;;;;22.25;60.06;100431.16;5011556;28;20528;-42
2021/07/28 11:08:06;;;;;;;7.28;6.13;;;;;;;22.26;60.04;100433.75;5011948;28;20415;-43
2021/07/28 11:10:37;;;;;;;6.10;5.60;;;;;;;22.27;60.02;100422.03;5013613;28;20041;-43
2021/07/28 11:13:12;;;;;;;6.15;5.63;;;;;;;22.26;59.70;100422.13;5013536;28;20023;-42
2021/07/28 11:15:39;;;;;;;8.07;5.80;;;;;;;22.26;59.10;100422.13;5013258;28;20021;-42
2021/07/28 11:18:05;;;;;;;6.25;5.68;;;;;;;22.27;59.65;100419.34;4995884;28;20024;-42
2021/07/28 11:20:31;;;;;;;5.85;5.35;;;;;;;22.27;59.42;100424.72;5012917;28;20022;-42
2021/07/28 11:23:24;;;;;;;6.53;5.93;;;;;;;22.29;59.46;100416.56;5013202;28;20053;-42
2021/07/28 11:25:54;;;;;;;6.35;5.60;;;;;;;22.28;59.28;100420.22;5011557;28;20381;-42
2021/07/28 11:28:20;;;;;;;6.95;5.68;;;;;;;22.27;59.53;100421.16;5012403;28;20034;-42